createdAt,value
2024-05-09T00:00:41.257Z,16.61
2024-05-09T00:03:10.421Z,16.74
2024-05-09T00:05:40.858Z,16.32
2024-05-09T00:08:09.368Z,16.44
2024-05-09T00:10:38.780Z,17.13
2024-05-09T00:13:08.001Z,15.40
2024-05-09T00:15:35.978Z,14.39
2024-05-09T00:18:04.565Z,16.04
2024-05-09T00:20:38.373Z,16.53
2024-05-09T00:23:12.319Z,16.18
2024-05-09T00:25:42.684Z,15.73
2024-05-09T00:28:10.110Z,16.02
2024-05-09T00:30:37.658Z,15.76
2024-05-09T00:33:07.167Z,15.93
2024-05-09T00:35:35.551Z,16.15
2024-05-09T00:38:02.845Z,15.90
2024-05-09T00:40:40.979Z,15.43
2024-05-09T00:43:14.686Z,16.21
2024-05-09T00:45:43.634Z,15.72
2024-05-09T00:48:15.195Z,16.81
2024-05-09T00:50:46.033Z,16.20
2024-05-09T00:53:15.734Z,16.10
2024-05-09T00:55:43.821Z,15.99
2024-05-09T00:58:14.563Z,14.66
2024-05-09T01:00:42.063Z,14.93
2024-05-09T01:03:13.676Z,15.25
2024-05-09T01:05:42.993Z,16.37
2024-05-09T01:08:11.190Z,15.46
2024-05-09T01:10:39.515Z,15.32
2024-05-09T01:13:07.784Z,15.40
2024-05-09T01:15:35.860Z,14.87
2024-05-09T01:18:09.775Z,15.98
2024-05-09T01:20:42.069Z,15.95
2024-05-09T01:23:12.434Z,14.61
2024-05-09T01:25:40.200Z,15.39
2024-05-09T01:28:07.635Z,15.77
2024-05-09T01:30:37.096Z,15.66
2024-05-09T01:33:08.044Z,16.13
2024-05-09T01:35:37.368Z,14.67
2024-05-09T01:38:05.117Z,16.07
2024-05-09T01:40:37.858Z,16.34
2024-05-09T01:43:08.899Z,15.37
2024-05-09T01:45:37.059Z,14.90
2024-05-09T01:48:04.754Z,15.88
2024-05-09T01:50:38.270Z,15.70
2024-05-09T01:53:13.847Z,14.98
2024-05-09T01:55:41.710Z,15.73
2024-05-09T01:58:09.576Z,15.11
2024-05-09T02:00:40.906Z,16.98
2024-05-09T02:03:14.811Z,16.58
2024-05-09T02:05:48.233Z,15.61
2024-05-09T02:08:24.653Z,16.94
2024-05-09T02:10:51.827Z,16.77
2024-05-09T02:13:18.955Z,16.75
2024-05-09T02:15:46.145Z,16.80
2024-05-09T02:18:14.006Z,16.90
2024-05-09T02:20:42.522Z,16.93
2024-05-09T02:23:10.299Z,15.96
2024-05-09T02:25:37.883Z,16.57
2024-05-09T02:28:05.273Z,16.48
2024-05-09T02:30:40.227Z,16.83
2024-05-09T02:33:11.676Z,16.97
2024-05-09T02:35:41.337Z,15.58
2024-05-09T02:38:09.869Z,16.11
2024-05-09T02:40:39.126Z,15.09
2024-05-09T02:43:09.808Z,16.59
2024-05-09T02:45:38.303Z,16.07
2024-05-09T02:48:06.191Z,16.50
2024-05-09T02:50:38.342Z,16.80
2024-05-09T02:53:14.449Z,16.85
2024-05-09T02:55:42.533Z,16.65
2024-05-09T02:58:10.623Z,16.70
2024-05-09T03:00:41.080Z,17.02
2024-05-09T03:03:12.619Z,16.80
2024-05-09T03:05:42.189Z,16.80
2024-05-09T03:08:09.704Z,16.90
2024-05-09T03:10:38.715Z,17.36
2024-05-09T03:13:13.277Z,16.61
2024-05-09T03:15:42.121Z,16.60
2024-05-09T03:18:09.542Z,16.34
2024-05-09T03:20:37.336Z,17.06
2024-05-09T03:23:06.506Z,16.63
2024-05-09T03:25:34.040Z,16.36
2024-05-09T03:28:01.467Z,16.57
2024-05-09T03:30:39.048Z,16.74
2024-05-09T03:33:15.545Z,15.97
2024-05-09T03:35:44.297Z,16.57
2024-05-09T03:38:11.623Z,16.73
2024-05-09T03:40:48.622Z,16.54
2024-05-09T03:43:16.827Z,16.86
2024-05-09T03:45:43.879Z,16.62
2024-05-09T03:48:11.151Z,16.71
2024-05-09T03:50:38.620Z,16.96
2024-05-09T03:53:06.055Z,16.74
2024-05-09T03:55:33.108Z,17.19
2024-05-09T03:58:00.231Z,16.77
2024-05-09T04:00:35.487Z,17.38
2024-05-09T04:03:08.765Z,16.63
2024-05-09T04:05:40.031Z,15.79
2024-05-09T04:08:07.899Z,16.58
2024-05-09T04:10:35.637Z,16.33
2024-05-09T04:13:04.058Z,15.63
2024-05-09T04:15:31.758Z,15.29
2024-05-09T04:17:59.327Z,15.81
2024-05-09T04:22:56.709Z,16.22
2024-05-09T04:25:23.768Z,16.64
2024-05-09T04:27:50.791Z,16.93
2024-05-09T04:30:25.774Z,17.09
2024-05-09T04:33:01.115Z,16.16
2024-05-09T04:35:28.608Z,16.87
2024-05-09T04:37:55.694Z,15.78
2024-05-09T04:40:30.775Z,15.54
2024-05-09T04:43:01.059Z,16.59
2024-05-09T04:45:28.115Z,15.82
2024-05-09T04:47:55.352Z,16.64
2024-05-09T04:50:30.195Z,16.80
2024-05-09T04:53:03.906Z,17.07
2024-05-09T04:55:31.340Z,16.53
2024-05-09T04:57:58.388Z,16.65
2024-05-09T05:00:34.537Z,15.25
2024-05-09T05:03:07.441Z,17.03
2024-05-09T05:05:38.119Z,16.02
2024-05-09T05:08:06.138Z,16.25
2024-05-09T05:10:36.021Z,16.60
2024-05-09T05:13:18.330Z,16.14
2024-05-09T05:15:47.479Z,16.27
2024-05-09T05:18:16.109Z,14.91
2024-05-09T05:20:43.696Z,15.46
2024-05-09T05:23:15.489Z,16.26
2024-05-09T05:25:42.947Z,14.77
2024-05-09T05:28:10.855Z,15.73
2024-05-09T05:30:38.687Z,15.82
2024-05-09T05:33:07.083Z,15.15
2024-05-09T05:35:35.074Z,15.20
2024-05-09T05:38:03.275Z,16.69
2024-05-09T05:40:37.175Z,15.56
2024-05-09T05:43:06.390Z,15.86
2024-05-09T05:45:33.389Z,16.48
2024-05-09T05:48:04.219Z,15.68
2024-05-09T05:50:36.029Z,16.54
2024-05-09T05:53:09.122Z,16.30
2024-05-09T05:55:37.849Z,16.16
2024-05-09T05:58:07.432Z,17.19
2024-05-09T06:00:38.669Z,15.41
2024-05-09T06:03:12.331Z,15.52
2024-05-09T06:05:40.759Z,15.89
2024-05-09T06:08:08.574Z,16.10
2024-05-09T06:10:39.377Z,16.37
2024-05-09T06:13:11.702Z,16.35
2024-05-09T06:15:40.061Z,15.86
2024-05-09T06:18:08.968Z,14.99
2024-05-09T06:20:38.180Z,16.24
2024-05-09T06:23:06.645Z,17.40
2024-05-09T06:25:35.101Z,16.27
2024-05-09T06:28:03.247Z,15.71
2024-05-09T06:30:37.870Z,17.23
2024-05-09T06:33:09.928Z,17.64
2024-05-09T06:35:38.377Z,16.60
2024-05-09T06:38:06.574Z,16.42
2024-05-09T06:40:37.879Z,17.61
2024-05-09T06:43:18.847Z,16.79
2024-05-09T06:45:53.108Z,16.58
2024-05-09T06:48:21.442Z,16.27
2024-05-09T06:50:50.132Z,16.42
2024-05-09T06:53:17.962Z,16.73
2024-05-09T06:55:45.233Z,17.13
2024-05-09T06:58:12.384Z,17.42
2024-05-09T07:00:41.319Z,17.92
2024-05-09T07:03:16.992Z,17.37
2024-05-09T07:05:47.464Z,17.51
2024-05-09T07:08:15.912Z,17.50
2024-05-09T07:10:43.190Z,19.08
2024-05-09T07:13:11.709Z,18.05
2024-05-09T07:15:39.585Z,16.93
2024-05-09T07:18:17.851Z,15.69
2024-05-09T07:20:47.011Z,15.58
2024-05-09T07:23:14.503Z,15.99
2024-05-09T07:25:42.099Z,15.77
2024-05-09T07:28:20.587Z,16.48
2024-05-09T07:30:47.957Z,18.25
2024-05-09T07:33:20.052Z,16.03
2024-05-09T07:35:48.721Z,17.01
2024-05-09T07:38:15.837Z,16.87
2024-05-09T07:40:43.293Z,17.81
2024-05-09T07:43:14.421Z,17.81
2024-05-09T07:45:50.736Z,18.01
2024-05-09T07:52:37.302Z,18.84
2024-05-09T07:53:47.244Z,17.64
2024-05-09T07:56:18.298Z,20.82
2024-05-09T07:58:46.529Z,17.50
2024-05-09T08:01:13.721Z,16.10
2024-05-09T08:03:41.033Z,17.67
2024-05-09T08:06:08.223Z,16.97
2024-05-09T08:08:35.261Z,16.12
2024-05-09T08:11:02.858Z,17.54
2024-05-09T08:13:29.981Z,20.39
2024-05-09T08:15:57.176Z,18.78
2024-05-09T08:18:24.343Z,16.78
2024-05-09T08:20:52.158Z,15.30
2024-05-09T08:23:19.174Z,16.76
2024-05-09T08:25:46.247Z,18.22
2024-05-09T08:28:13.445Z,19.52
2024-05-09T08:30:40.739Z,20.19
2024-05-09T08:33:08.309Z,18.89
2024-05-09T08:35:36.082Z,19.13
2024-05-09T08:38:04.589Z,21.07
2024-05-09T08:40:35.763Z,19.42
2024-05-09T08:43:12.303Z,18.40
2024-05-09T08:45:43.930Z,17.24
2024-05-09T08:48:15.518Z,17.72
2024-05-09T08:50:44.805Z,18.39
2024-05-09T08:53:12.917Z,19.55
2024-05-09T08:55:43.296Z,18.10
2024-05-09T08:58:16.647Z,17.76
2024-05-09T09:00:45.204Z,17.36
2024-05-09T09:03:18.905Z,19.27
2024-05-09T09:06:14.652Z,20.92
2024-05-09T09:08:41.891Z,19.50
2024-05-09T09:11:08.918Z,20.42
2024-05-09T09:13:35.966Z,20.60
2024-05-09T09:16:04.112Z,17.98
2024-05-09T09:18:32.952Z,16.71
2024-05-09T09:21:01.011Z,19.16
2024-05-09T09:23:30.221Z,19.74
2024-05-09T09:26:00.861Z,20.84
2024-05-09T09:28:28.255Z,19.57
2024-05-09T09:31:01.593Z,18.47
2024-05-09T09:33:31.720Z,20.44
2024-05-09T09:35:59.365Z,21.58
2024-05-09T09:38:29.029Z,19.53
2024-05-09T09:40:56.156Z,21.80
2024-05-09T09:43:23.889Z,21.69
2024-05-09T09:45:53.427Z,19.46
2024-05-09T09:48:22.899Z,19.40
2024-05-09T09:50:52.656Z,20.76
2024-05-09T09:53:19.878Z,19.94
2024-05-09T09:55:48.447Z,20.62
2024-05-09T09:58:17.628Z,20.33
2024-05-09T10:00:45.624Z,23.02
2024-05-09T10:03:13.134Z,21.83
2024-05-09T10:05:43.253Z,21.39
2024-05-09T10:08:13.935Z,22.36
2024-05-09T10:10:46.754Z,20.37
2024-05-09T10:13:14.002Z,18.98
2024-05-09T10:15:59.242Z,21.31
2024-05-09T10:18:36.700Z,20.25
2024-05-09T10:21:16.186Z,20.16
2024-05-09T10:24:00.786Z,21.29
2024-05-09T10:26:38.474Z,21.58
2024-05-09T10:29:15.646Z,22.97
2024-05-09T10:31:44.617Z,20.77
2024-05-09T10:34:20.652Z,21.87
2024-05-09T10:36:55.221Z,20.27
2024-05-09T10:39:22.598Z,20.58
2024-05-09T10:41:50.098Z,20.96
2024-05-09T10:44:18.596Z,21.69
2024-05-09T10:46:46.427Z,19.01
2024-05-09T10:49:17.175Z,22.11
2024-05-09T10:51:45.398Z,20.89
2024-05-09T10:54:12.524Z,21.00
2024-05-09T10:56:39.645Z,21.13
2024-05-09T10:59:06.789Z,21.14
2024-05-09T11:01:33.887Z,22.27
2024-05-09T11:04:03.854Z,21.83
2024-05-09T11:06:31.180Z,19.49
2024-05-09T11:08:58.358Z,22.11
2024-05-09T11:11:26.648Z,22.20
2024-05-09T11:13:53.727Z,20.96
2024-05-09T11:16:21.570Z,19.35
2024-05-09T11:18:58.570Z,21.16
2024-05-09T11:21:26.250Z,21.74
2024-05-09T11:23:53.466Z,21.70
2024-05-09T11:26:22.331Z,22.80
2024-05-09T11:28:51.037Z,22.96
2024-05-09T11:31:18.678Z,22.18
2024-05-09T11:33:47.014Z,22.47
2024-05-09T11:36:14.673Z,23.40
2024-05-09T11:38:41.779Z,21.02
2024-05-09T11:41:08.857Z,21.45
2024-05-09T11:43:35.901Z,21.20
2024-05-09T11:46:03.824Z,22.58
2024-05-09T11:48:32.117Z,20.18
2024-05-09T11:50:59.560Z,24.26
2024-05-09T11:53:26.681Z,25.71
2024-05-09T11:55:54.041Z,24.09
2024-05-09T11:58:23.115Z,23.67
2024-05-09T12:00:50.503Z,21.06
2024-05-09T12:03:18.534Z,20.15
2024-05-09T12:05:45.828Z,20.22
2024-05-09T12:08:13.330Z,18.88
2024-05-09T12:10:40.797Z,21.01
2024-05-09T12:13:08.247Z,21.55
2024-05-09T12:15:37.929Z,20.92
2024-05-09T12:18:07.307Z,22.21
2024-05-09T12:20:38.250Z,22.73
2024-05-09T12:23:09.385Z,20.55
2024-05-09T12:25:40.788Z,21.12
2024-05-09T12:28:08.835Z,23.48
2024-05-09T12:30:40.140Z,21.45
2024-05-09T12:33:12.739Z,23.16
2024-05-09T12:35:44.068Z,21.57
2024-05-09T12:38:15.365Z,21.56
2024-05-09T12:40:43.028Z,22.07
2024-05-09T12:43:11.458Z,20.13
2024-05-09T12:45:40.182Z,20.03
2024-05-09T12:48:12.350Z,20.86
2024-05-09T12:50:40.853Z,19.54
2024-05-09T12:53:08.269Z,18.74
2024-05-09T12:55:44.310Z,19.59
2024-05-09T12:58:22.374Z,19.82
2024-05-09T13:00:51.836Z,20.53
2024-05-09T13:03:19.387Z,20.82
2024-05-09T13:05:46.887Z,22.36
2024-05-09T13:08:14.360Z,22.62
2024-05-09T13:10:42.172Z,23.57
2024-05-09T13:13:10.895Z,22.85
2024-05-09T13:15:39.236Z,23.34
2024-05-09T13:18:07.359Z,23.87
2024-05-09T13:20:36.773Z,21.92
2024-05-09T13:23:07.219Z,23.64
2024-05-09T13:25:35.593Z,23.62
2024-05-09T13:28:04.256Z,24.95
2024-05-09T13:30:39.230Z,25.10
2024-05-09T13:33:13.711Z,25.03
2024-05-09T13:35:46.897Z,23.40
2024-05-09T13:38:17.649Z,24.74
2024-05-09T13:40:45.897Z,21.29
2024-05-09T13:43:13.410Z,23.12
2024-05-09T13:45:40.674Z,25.68
2024-05-09T13:48:10.011Z,24.00
2024-05-09T13:50:37.621Z,24.62
2024-05-09T13:53:06.923Z,24.86
2024-05-09T13:55:37.359Z,23.80
2024-05-09T13:58:04.838Z,24.17
2024-05-09T14:00:42.628Z,26.10
2024-05-09T14:03:15.893Z,23.00
2024-05-09T14:05:43.708Z,23.44
2024-05-09T14:08:11.614Z,24.94
2024-05-09T14:10:44.710Z,24.91
2024-05-09T14:13:13.221Z,25.72
2024-05-09T14:15:41.313Z,25.44
2024-05-09T14:18:12.375Z,27.21
2024-05-09T14:20:42.702Z,25.67
2024-05-09T14:23:09.983Z,22.99
2024-05-09T14:25:43.238Z,24.64
2024-05-09T14:28:12.520Z,23.37
2024-05-09T14:30:40.431Z,21.85
2024-05-09T14:33:08.878Z,21.96
2024-05-09T14:35:38.582Z,21.29
2024-05-09T14:38:07.761Z,22.87
2024-05-09T14:40:41.719Z,21.11
2024-05-09T14:43:12.722Z,25.36
2024-05-09T14:45:40.622Z,26.08
2024-05-09T14:48:08.535Z,24.35
2024-05-09T14:50:38.826Z,25.30
2024-05-09T14:53:11.359Z,24.64
2024-05-09T14:55:40.506Z,24.06
2024-05-09T14:58:13.171Z,23.04
2024-05-09T15:00:46.270Z,24.00
2024-05-09T15:03:18.211Z,22.68
2024-05-09T15:05:45.685Z,22.85
2024-05-09T15:08:12.776Z,23.31
2024-05-09T15:10:40.105Z,24.00
2024-05-09T15:13:09.659Z,23.48
2024-05-09T15:15:38.459Z,23.57
2024-05-09T15:18:06.409Z,25.42
2024-05-09T15:20:36.343Z,23.65
2024-05-09T15:23:06.215Z,23.08
2024-05-09T15:25:34.554Z,23.42
2024-05-09T15:28:01.787Z,24.70
2024-05-09T15:30:32.130Z,23.77
2024-05-09T15:33:03.370Z,22.68
2024-05-09T15:35:33.286Z,24.22
2024-05-09T15:38:03.022Z,21.61
2024-05-09T15:40:37.757Z,23.39
2024-05-09T15:43:08.692Z,24.28
2024-05-09T15:45:36.901Z,23.23
2024-05-09T15:48:04.733Z,23.50
2024-05-09T15:50:37.609Z,23.04
2024-05-09T15:53:09.223Z,22.48
2024-05-09T15:55:37.088Z,22.75
2024-05-09T15:58:05.641Z,22.98
2024-05-09T16:00:38.099Z,20.55
2024-05-09T16:03:13.974Z,22.62
2024-05-09T16:05:44.912Z,21.66
2024-05-09T16:08:13.259Z,20.95
2024-05-09T16:10:44.598Z,20.90
2024-05-09T16:13:13.282Z,22.30
2024-05-09T16:15:40.835Z,21.51
2024-05-09T16:18:08.242Z,20.26
2024-05-09T16:20:40.117Z,21.78
2024-05-09T16:23:10.392Z,21.27
2024-05-09T16:25:39.752Z,22.49
2024-05-09T16:28:09.996Z,22.39
2024-05-09T16:30:41.142Z,19.69
2024-05-09T16:33:09.270Z,20.87
2024-05-09T16:35:37.589Z,19.82
2024-05-09T16:38:06.257Z,19.66
2024-05-09T16:40:38.269Z,20.41
2024-05-09T16:43:08.997Z,22.43
2024-05-09T16:45:37.180Z,21.70
2024-05-09T16:48:05.041Z,21.52
2024-05-09T16:50:34.480Z,21.56
2024-05-09T16:53:07.069Z,18.81
2024-05-09T16:55:37.341Z,19.62
2024-05-09T16:58:06.995Z,21.27
2024-05-09T17:00:40.826Z,22.02
2024-05-09T17:03:13.180Z,21.87
2024-05-09T17:05:41.940Z,20.59
2024-05-09T17:08:09.538Z,20.03
2024-05-09T17:10:37.095Z,20.45
2024-05-09T17:13:06.191Z,20.16
2024-05-09T17:15:35.505Z,20.74
2024-05-09T17:18:04.089Z,21.37
2024-05-09T17:20:34.748Z,20.98
2024-05-09T17:23:05.521Z,21.27
2024-05-09T17:25:33.643Z,19.72
2024-05-09T17:28:07.652Z,20.41
2024-05-09T17:30:39.309Z,20.58
2024-05-09T17:33:09.831Z,21.18
2024-05-09T17:35:38.462Z,21.46
2024-05-09T17:38:06.619Z,21.04
2024-05-09T17:40:36.552Z,21.25
2024-05-09T17:43:06.922Z,20.06
2024-05-09T17:45:37.810Z,19.58
2024-05-09T17:48:05.385Z,20.35
2024-05-09T17:50:35.987Z,20.68
2024-05-09T17:53:08.737Z,18.95
2024-05-09T17:55:36.776Z,18.86
2024-05-09T17:58:05.321Z,18.27
2024-05-09T18:00:39.071Z,17.65
2024-05-09T18:03:12.358Z,17.50
2024-05-09T18:05:41.099Z,17.54
2024-05-09T18:08:08.997Z,17.39
2024-05-09T18:10:39.003Z,17.52
2024-05-09T18:13:11.381Z,17.59
2024-05-09T18:15:39.626Z,17.98
2024-05-09T18:18:07.760Z,17.00
2024-05-09T18:20:42.217Z,18.13
2024-05-09T18:23:18.775Z,16.60
2024-05-09T18:25:47.119Z,16.83
2024-05-09T18:28:15.710Z,16.23
2024-05-09T18:30:43.361Z,18.18
2024-05-09T18:33:11.563Z,18.15
2024-05-09T18:35:39.288Z,16.97
2024-05-09T18:38:06.425Z,15.98
2024-05-09T18:40:36.588Z,15.79
2024-05-09T18:43:08.043Z,16.97
2024-05-09T18:45:37.788Z,16.99
2024-05-09T18:48:06.709Z,17.13
2024-05-09T18:50:38.005Z,15.84
2024-05-09T18:53:07.880Z,15.58
2024-05-09T18:55:35.269Z,16.00
2024-05-09T18:58:03.614Z,15.68
2024-05-09T19:00:35.651Z,15.93
2024-05-09T19:03:11.564Z,16.12
2024-05-09T19:05:41.655Z,16.91
2024-05-09T19:08:09.663Z,15.50
2024-05-09T19:10:38.652Z,15.38
2024-05-09T19:13:10.828Z,15.32
2024-05-09T19:15:41.118Z,15.98
2024-05-09T19:18:09.978Z,15.39
2024-05-09T19:20:38.166Z,14.53
2024-05-09T19:23:06.530Z,15.18
2024-05-09T19:25:34.766Z,14.14
2024-05-09T19:28:03.483Z,15.51
2024-05-09T19:30:38.454Z,15.82
2024-05-09T19:33:10.213Z,15.97
2024-05-09T19:35:38.854Z,15.45
2024-05-09T19:38:06.592Z,14.04
2024-05-09T19:40:35.152Z,14.55
2024-05-09T19:43:04.238Z,15.35
2024-05-09T19:45:33.778Z,14.97
2024-05-09T19:48:02.229Z,14.04
2024-05-09T19:50:37.382Z,14.31
2024-05-09T19:53:10.350Z,13.68
2024-05-09T19:55:38.049Z,15.04
2024-05-09T19:58:07.346Z,13.06
2024-05-09T20:00:41.919Z,13.74
2024-05-09T20:03:12.290Z,13.25
2024-05-09T20:05:39.942Z,13.24
2024-05-09T20:08:07.384Z,14.76
2024-05-09T20:10:36.026Z,14.17
2024-05-09T20:13:06.662Z,14.24
2024-05-09T20:15:37.063Z,14.77
2024-05-09T20:18:05.327Z,14.40
2024-05-09T20:20:39.127Z,15.00
2024-05-09T20:23:09.995Z,13.89
2024-05-09T20:25:37.352Z,13.88
2024-05-09T20:28:06.593Z,13.97
2024-05-09T20:30:35.303Z,14.03
2024-05-09T20:33:04.926Z,14.11
2024-05-09T20:35:33.563Z,14.21
2024-05-09T20:38:02.337Z,14.30
2024-05-09T20:40:34.604Z,14.49
2024-05-09T20:43:06.002Z,14.24
2024-05-09T20:45:34.108Z,13.84
2024-05-09T20:48:01.702Z,13.78
2024-05-09T20:50:36.943Z,13.61
2024-05-09T20:53:12.884Z,13.60
2024-05-09T20:55:41.257Z,13.69
2024-05-09T20:58:09.921Z,13.66
2024-05-09T21:00:41.029Z,13.44
2024-05-09T21:03:11.964Z,13.64
2024-05-09T21:05:39.891Z,13.57
2024-05-09T21:08:07.839Z,13.56
2024-05-09T21:10:36.995Z,13.41
2024-05-09T21:13:05.841Z,13.28
2024-05-09T21:15:33.916Z,12.51
2024-05-09T21:18:01.443Z,12.77
2024-05-09T21:20:31.585Z,13.40
2024-05-09T21:23:01.067Z,12.69
2024-05-09T21:25:28.365Z,12.10
2024-05-09T21:27:55.681Z,12.43
2024-05-09T21:30:41.512Z,13.38
2024-05-09T21:33:12.644Z,12.71
2024-05-09T21:35:42.889Z,13.28
2024-05-09T21:38:10.465Z,13.17
2024-05-09T21:40:38.307Z,13.44
2024-05-09T21:43:07.822Z,13.37
2024-05-09T21:45:38.109Z,13.12
2024-05-09T21:48:06.666Z,13.43
2024-05-09T21:50:39.897Z,13.43
2024-05-09T21:53:12.746Z,12.79
2024-05-09T21:55:40.498Z,11.93
2024-05-09T21:58:08.026Z,12.96
2024-05-09T22:00:38.254Z,12.84
2024-05-09T22:03:11.002Z,13.39
2024-05-09T22:05:42.358Z,12.82
2024-05-09T22:08:11.100Z,13.16
2024-05-09T22:10:38.552Z,12.97
2024-05-09T22:13:09.158Z,13.01
2024-05-09T22:15:38.620Z,13.05
2024-05-09T22:18:08.595Z,12.86
2024-05-09T22:20:39.321Z,12.71
2024-05-09T22:23:09.125Z,12.44
2024-05-09T22:25:37.264Z,12.11
2024-05-09T22:28:05.065Z,12.97
2024-05-09T22:30:37.128Z,12.62
2024-05-09T22:33:08.440Z,12.64
2024-05-09T22:35:39.584Z,12.36
2024-05-09T22:38:06.811Z,12.58
2024-05-09T22:40:43.354Z,12.32
2024-05-09T22:43:23.693Z,11.83
2024-05-09T22:45:54.908Z,12.49
2024-05-09T22:48:23.917Z,12.43
2024-05-09T22:50:51.692Z,11.87
2024-05-09T22:53:19.051Z,12.16
2024-05-09T22:55:46.101Z,12.11
2024-05-09T22:58:13.387Z,11.90
2024-05-09T23:00:40.545Z,11.63
2024-05-09T23:03:07.770Z,12.03
2024-05-09T23:05:34.992Z,12.35
2024-05-09T23:08:02.699Z,12.57
2024-05-09T23:10:35.750Z,12.41
2024-05-09T23:13:06.958Z,12.10
2024-05-09T23:15:34.963Z,11.68
2024-05-09T23:18:02.275Z,11.88
2024-05-09T23:20:36.515Z,12.07
2024-05-09T23:23:10.392Z,12.23
2024-05-09T23:25:38.988Z,11.96
2024-05-09T23:28:06.422Z,12.06
2024-05-09T23:30:38.333Z,11.84
2024-05-09T23:33:09.686Z,11.91
2024-05-09T23:35:37.339Z,11.36
2024-05-09T23:38:05.269Z,11.32
2024-05-09T23:43:03.737Z,12.13
2024-05-09T23:45:31.235Z,11.56
2024-05-09T23:47:58.573Z,11.61
2024-05-09T23:50:33.628Z,11.91
2024-05-09T23:53:03.915Z,11.53
2024-05-09T23:55:31.930Z,11.41
2024-05-09T23:57:59.844Z,11.04
